NAN weather

Nadi International Airport
Nadi, Western, Fiji

Public forecast

Using degrees Celsius for public forecast. Weather courtesy of forecast.io.

METAR (pilot weather report)

Retrieved 2019/05/24 14:00 UTC (39 minutes ago):

NFFN 241400Z 08006KT 9999 FEW030 21/20 Q1010 NOSIG

TAF (pilot weather forecast)

Retrieved 2019/05/24 12:00 UTC (3 hours ago):

TAF NFFN 241122Z 2412/2512 08007KT 9999 SCT025 SCT100 BECMG 2421/2423 28010KT PROB30 TEMPO 2502/2506 5000 SHRA BKN015 BECMG 2505/2507 08007KT